sensor_id;sensor_type;location;lat;lon;timestamp;P1;durP1;ratioP1;P2;durP2;ratioP2
4547;SDS011;2286;51.570;7.090;2024-02-21T00:00:54;24.33;;;13.60;;
4547;SDS011;2286;51.570;7.090;2024-02-21T00:03:22;24.17;;;12.70;;
4547;SDS011;2286;51.570;7.090;2024-02-21T00:05:49;21.37;;;12.60;;
4547;SDS011;2286;51.570;7.090;2024-02-21T00:08:16;29.27;;;13.30;;
4547;SDS011;2286;51.570;7.090;2024-02-21T00:10:43;29.13;;;13.40;;
4547;SDS011;2286;51.570;7.090;2024-02-21T00:13:10;24.60;;;12.83;;
4547;SDS011;2286;51.570;7.090;2024-02-21T00:15:37;29.57;;;13.00;;
4547;SDS011;2286;51.570;7.090;2024-02-21T00:18:04;22.77;;;12.87;;
4547;SDS011;2286;51.570;7.090;2024-02-21T00:20:32;24.60;;;13.03;;
4547;SDS011;2286;51.570;7.090;2024-02-21T00:22:59;29.73;;;13.77;;
4547;SDS011;2286;51.570;7.090;2024-02-21T00:25:26;26.87;;;15.37;;
4547;SDS011;2286;51.570;7.090;2024-02-21T00:27:53;29.50;;;14.73;;
4547;SDS011;2286;51.570;7.090;2024-02-21T00:30:20;25.60;;;13.40;;
4547;SDS011;2286;51.570;7.090;2024-02-21T00:32:47;29.47;;;13.60;;
4547;SDS011;2286;51.570;7.090;2024-02-21T00:35:14;20.70;;;12.67;;
4547;SDS011;2286;51.570;7.090;2024-02-21T00:37:42;28.40;;;12.80;;
4547;SDS011;2286;51.570;7.090;2024-02-21T00:40:09;33.63;;;14.03;;
4547;SDS011;2286;51.570;7.090;2024-02-21T00:42:36;24.40;;;13.67;;
4547;SDS011;2286;51.570;7.090;2024-02-21T00:45:04;24.83;;;13.00;;
4547;SDS011;2286;51.570;7.090;2024-02-21T00:47:31;24.10;;;13.27;;
4547;SDS011;2286;51.570;7.090;2024-02-21T00:49:58;26.43;;;13.10;;
4547;SDS011;2286;51.570;7.090;2024-02-21T00:52:26;20.13;;;13.13;;
4547;SDS011;2286;51.570;7.090;2024-02-21T00:54:54;26.07;;;13.70;;
4547;SDS011;2286;51.570;7.090;2024-02-21T00:57:21;27.63;;;13.67;;
4547;SDS011;2286;51.570;7.090;2024-02-21T00:59:48;27.27;;;14.17;;
4547;SDS011;2286;51.570;7.090;2024-02-21T01:02:15;23.13;;;13.27;;
4547;SDS011;2286;51.570;7.090;2024-02-21T01:04:42;29.00;;;13.80;;
4547;SDS011;2286;51.570;7.090;2024-02-21T01:07:10;24.60;;;14.30;;
4547;SDS011;2286;51.570;7.090;2024-02-21T01:09:37;21.93;;;12.60;;
4547;SDS011;2286;51.570;7.090;2024-02-21T01:12:05;27.70;;;14.27;;
4547;SDS011;2286;51.570;7.090;2024-02-21T01:14:32;27.47;;;13.47;;
4547;SDS011;2286;51.570;7.090;2024-02-21T01:16:59;26.27;;;13.93;;
4547;SDS011;2286;51.570;7.090;2024-02-21T01:19:26;25.57;;;13.37;;
4547;SDS011;2286;51.570;7.090;2024-02-21T01:21:53;27.90;;;12.37;;
4547;SDS011;2286;51.570;7.090;2024-02-21T01:24:20;23.03;;;13.37;;
4547;SDS011;2286;51.570;7.090;2024-02-21T01:26:47;26.03;;;14.87;;
4547;SDS011;2286;51.570;7.090;2024-02-21T01:29:15;30.83;;;13.10;;
4547;SDS011;2286;51.570;7.090;2024-02-21T01:31:42;28.00;;;13.13;;
4547;SDS011;2286;51.570;7.090;2024-02-21T01:34:09;26.60;;;12.43;;
4547;SDS011;2286;51.570;7.090;2024-02-21T01:36:36;26.00;;;13.80;;
4547;SDS011;2286;51.570;7.090;2024-02-21T01:39:03;29.17;;;14.83;;
4547;SDS011;2286;51.570;7.090;2024-02-21T01:41:30;19.60;;;12.33;;
4547;SDS011;2286;51.570;7.090;2024-02-21T01:43:57;21.70;;;12.83;;
4547;SDS011;2286;51.570;7.090;2024-02-21T01:46:25;30.70;;;13.60;;
4547;SDS011;2286;51.570;7.090;2024-02-21T01:48:55;28.17;;;12.77;;
4547;SDS011;2286;51.570;7.090;2024-02-21T01:51:23;29.30;;;12.43;;
4547;SDS011;2286;51.570;7.090;2024-02-21T01:53:50;24.03;;;13.50;;
4547;SDS011;2286;51.570;7.090;2024-02-21T01:56:18;23.20;;;11.70;;
4547;SDS011;2286;51.570;7.090;2024-02-21T01:58:46;20.27;;;12.20;;
4547;SDS011;2286;51.570;7.090;2024-02-21T02:01:14;20.23;;;11.80;;
4547;SDS011;2286;51.570;7.090;2024-02-21T02:03:43;23.07;;;12.10;;
4547;SDS011;2286;51.570;7.090;2024-02-21T02:06:11;27.87;;;13.50;;
4547;SDS011;2286;51.570;7.090;2024-02-21T02:08:39;24.37;;;12.50;;
4547;SDS011;2286;51.570;7.090;2024-02-21T02:11:06;20.47;;;10.93;;
4547;SDS011;2286;51.570;7.090;2024-02-21T02:13:33;20.17;;;11.60;;
4547;SDS011;2286;51.570;7.090;2024-02-21T02:15:59;25.57;;;11.53;;
4547;SDS011;2286;51.570;7.090;2024-02-21T02:18:26;19.33;;;11.43;;
4547;SDS011;2286;51.570;7.090;2024-02-21T02:20:55;26.53;;;11.43;;
4547;SDS011;2286;51.570;7.090;2024-02-21T02:23:25;25.10;;;11.87;;
4547;SDS011;2286;51.570;7.090;2024-02-21T02:25:52;24.13;;;12.20;;
4547;SDS011;2286;51.570;7.090;2024-02-21T02:28:19;25.23;;;11.00;;
4547;SDS011;2286;51.570;7.090;2024-02-21T02:30:47;19.10;;;10.50;;
4547;SDS011;2286;51.570;7.090;2024-02-21T02:33:14;20.67;;;10.70;;
4547;SDS011;2286;51.570;7.090;2024-02-21T02:35:43;18.13;;;11.43;;
4547;SDS011;2286;51.570;7.090;2024-02-21T02:38:10;26.50;;;12.20;;
4547;SDS011;2286;51.570;7.090;2024-02-21T02:40:39;24.03;;;11.57;;
4547;SDS011;2286;51.570;7.090;2024-02-21T02:43:06;19.77;;;11.20;;
4547;SDS011;2286;51.570;7.090;2024-02-21T02:45:33;25.13;;;11.70;;
4547;SDS011;2286;51.570;7.090;2024-02-21T02:48:00;27.63;;;11.63;;
4547;SDS011;2286;51.570;7.090;2024-02-21T02:50:27;26.57;;;12.53;;
4547;SDS011;2286;51.570;7.090;2024-02-21T02:52:54;21.27;;;11.30;;
4547;SDS011;2286;51.570;7.090;2024-02-21T02:55:21;23.83;;;12.07;;
4547;SDS011;2286;51.570;7.090;2024-02-21T02:57:50;19.40;;;11.30;;
4547;SDS011;2286;51.570;7.090;2024-02-21T03:00:17;20.57;;;10.93;;
4547;SDS011;2286;51.570;7.090;2024-02-21T03:02:45;17.43;;;11.00;;
4547;SDS011;2286;51.570;7.090;2024-02-21T03:05:15;28.93;;;12.17;;
4547;SDS011;2286;51.570;7.090;2024-02-21T03:07:42;26.47;;;12.00;;
4547;SDS011;2286;51.570;7.090;2024-02-21T03:10:10;25.00;;;11.87;;
4547;SDS011;2286;51.570;7.090;2024-02-21T03:12:38;24.03;;;11.97;;
4547;SDS011;2286;51.570;7.090;2024-02-21T03:15:07;21.00;;;11.80;;
4547;SDS011;2286;51.570;7.090;2024-02-21T03:17:34;21.20;;;12.00;;
4547;SDS011;2286;51.570;7.090;2024-02-21T03:20:01;19.73;;;10.80;;
4547;SDS011;2286;51.570;7.090;2024-02-21T03:22:30;24.23;;;12.40;;
4547;SDS011;2286;51.570;7.090;2024-02-21T03:24:58;18.80;;;10.73;;
4547;SDS011;2286;51.570;7.090;2024-02-21T03:27:25;23.57;;;11.50;;
4547;SDS011;2286;51.570;7.090;2024-02-21T03:29:51;19.00;;;10.90;;
4547;SDS011;2286;51.570;7.090;2024-02-21T03:32:20;21.30;;;9.70;;
4547;SDS011;2286;51.570;7.090;2024-02-21T03:34:47;23.87;;;12.00;;
4547;SDS011;2286;51.570;7.090;2024-02-21T03:37:13;22.77;;;11.07;;
4547;SDS011;2286;51.570;7.090;2024-02-21T03:39:41;26.70;;;11.97;;
4547;SDS011;2286;51.570;7.090;2024-02-21T03:42:08;23.50;;;11.20;;
4547;SDS011;2286;51.570;7.090;2024-02-21T03:44:35;25.97;;;11.33;;
4547;SDS011;2286;51.570;7.090;2024-02-21T03:47:02;22.43;;;11.83;;
4547;SDS011;2286;51.570;7.090;2024-02-21T03:49:31;26.33;;;11.63;;
4547;SDS011;2286;51.570;7.090;2024-02-21T03:51:58;18.77;;;10.20;;
4547;SDS011;2286;51.570;7.090;2024-02-21T03:54:24;26.60;;;11.43;;
4547;SDS011;2286;51.570;7.090;2024-02-21T03:56:51;21.27;;;10.97;;
4547;SDS011;2286;51.570;7.090;2024-02-21T03:59:18;21.47;;;11.40;;
4547;SDS011;2286;51.570;7.090;2024-02-21T04:01:45;23.60;;;11.30;;
4547;SDS011;2286;51.570;7.090;2024-02-21T04:04:12;19.70;;;10.73;;
4547;SDS011;2286;51.570;7.090;2024-02-21T04:06:47;21.60;;;11.77;;
4547;SDS011;2286;51.570;7.090;2024-02-21T04:09:14;19.07;;;9.80;;
4547;SDS011;2286;51.570;7.090;2024-02-21T04:11:41;18.93;;;10.33;;
4547;SDS011;2286;51.570;7.090;2024-02-21T04:14:08;23.93;;;10.90;;
4547;SDS011;2286;51.570;7.090;2024-02-21T04:16:36;24.77;;;11.60;;
4547;SDS011;2286;51.570;7.090;2024-02-21T04:19:03;22.80;;;10.53;;
4547;SDS011;2286;51.570;7.090;2024-02-21T04:21:30;17.40;;;10.30;;
4547;SDS011;2286;51.570;7.090;2024-02-21T04:23:59;22.07;;;11.53;;
4547;SDS011;2286;51.570;7.090;2024-02-21T04:26:27;20.60;;;11.20;;
4547;SDS011;2286;51.570;7.090;2024-02-21T04:28:54;16.50;;;10.40;;
4547;SDS011;2286;51.570;7.090;2024-02-21T04:31:21;17.80;;;10.43;;
4547;SDS011;2286;51.570;7.090;2024-02-21T04:33:47;18.17;;;11.47;;
4547;SDS011;2286;51.570;7.090;2024-02-21T04:36:14;23.07;;;10.03;;
4547;SDS011;2286;51.570;7.090;2024-02-21T04:38:41;16.27;;;10.27;;
4547;SDS011;2286;51.570;7.090;2024-02-21T04:41:10;20.63;;;10.73;;
4547;SDS011;2286;51.570;7.090;2024-02-21T04:43:36;18.47;;;9.27;;
4547;SDS011;2286;51.570;7.090;2024-02-21T04:46:04;25.43;;;10.17;;
4547;SDS011;2286;51.570;7.090;2024-02-21T04:48:31;23.73;;;10.90;;
4547;SDS011;2286;51.570;7.090;2024-02-21T04:50:58;20.37;;;9.57;;
4547;SDS011;2286;51.570;7.090;2024-02-21T04:53:25;16.93;;;8.87;;
4547;SDS011;2286;51.570;7.090;2024-02-21T04:55:52;19.60;;;10.07;;
4547;SDS011;2286;51.570;7.090;2024-02-21T04:58:20;19.27;;;10.77;;
4547;SDS011;2286;51.570;7.090;2024-02-21T05:00:47;15.70;;;9.40;;
4547;SDS011;2286;51.570;7.090;2024-02-21T05:03:14;18.87;;;9.93;;
4547;SDS011;2286;51.570;7.090;2024-02-21T05:05:41;17.13;;;9.30;;
4547;SDS011;2286;51.570;7.090;2024-02-21T05:08:09;13.37;;;9.10;;
4547;SDS011;2286;51.570;7.090;2024-02-21T05:10:36;16.50;;;9.00;;
4547;SDS011;2286;51.570;7.090;2024-02-21T05:13:03;16.37;;;9.10;;
4547;SDS011;2286;51.570;7.090;2024-02-21T05:15:31;16.00;;;8.90;;
4547;SDS011;2286;51.570;7.090;2024-02-21T05:17:58;20.77;;;10.13;;
4547;SDS011;2286;51.570;7.090;2024-02-21T05:20:25;18.63;;;8.97;;
4547;SDS011;2286;51.570;7.090;2024-02-21T05:22:52;18.93;;;8.07;;
4547;SDS011;2286;51.570;7.090;2024-02-21T05:25:19;13.30;;;8.00;;
4547;SDS011;2286;51.570;7.090;2024-02-21T05:27:46;17.37;;;8.50;;
4547;SDS011;2286;51.570;7.090;2024-02-21T05:30:13;14.33;;;7.90;;
4547;SDS011;2286;51.570;7.090;2024-02-21T05:32:41;12.93;;;7.43;;
4547;SDS011;2286;51.570;7.090;2024-02-21T05:35:08;14.00;;;8.00;;
4547;SDS011;2286;51.570;7.090;2024-02-21T05:37:35;12.50;;;7.23;;
4547;SDS011;2286;51.570;7.090;2024-02-21T05:40:02;14.97;;;8.20;;
4547;SDS011;2286;51.570;7.090;2024-02-21T05:42:30;12.30;;;7.60;;
4547;SDS011;2286;51.570;7.090;2024-02-21T05:44:57;15.10;;;7.50;;
4547;SDS011;2286;51.570;7.090;2024-02-21T05:47:24;13.57;;;7.30;;
4547;SDS011;2286;51.570;7.090;2024-02-21T05:49:52;13.30;;;6.80;;
4547;SDS011;2286;51.570;7.090;2024-02-21T05:52:19;12.57;;;7.30;;
4547;SDS011;2286;51.570;7.090;2024-02-21T05:54:46;12.83;;;7.43;;
4547;SDS011;2286;51.570;7.090;2024-02-21T05:57:16;10.43;;;6.63;;
4547;SDS011;2286;51.570;7.090;2024-02-21T05:59:43;13.80;;;7.77;;
4547;SDS011;2286;51.570;7.090;2024-02-21T06:02:10;13.27;;;7.60;;
4547;SDS011;2286;51.570;7.090;2024-02-21T06:04:37;20.13;;;7.57;;
4547;SDS011;2286;51.570;7.090;2024-02-21T06:07:06;18.37;;;7.87;;
4547;SDS011;2286;51.570;7.090;2024-02-21T06:09:32;14.90;;;7.93;;
4547;SDS011;2286;51.570;7.090;2024-02-21T06:11:59;15.23;;;7.03;;
4547;SDS011;2286;51.570;7.090;2024-02-21T06:14:26;14.90;;;7.10;;
4547;SDS011;2286;51.570;7.090;2024-02-21T06:16:53;10.17;;;6.20;;
4547;SDS011;2286;51.570;7.090;2024-02-21T06:19:20;15.30;;;6.30;;
4547;SDS011;2286;51.570;7.090;2024-02-21T06:21:47;13.67;;;6.47;;
4547;SDS011;2286;51.570;7.090;2024-02-21T06:24:15;13.87;;;6.73;;
4547;SDS011;2286;51.570;7.090;2024-02-21T06:26:42;12.40;;;6.77;;
4547;SDS011;2286;51.570;7.090;2024-02-21T06:29:10;9.67;;;5.90;;
4547;SDS011;2286;51.570;7.090;2024-02-21T06:31:38;11.60;;;6.73;;
4547;SDS011;2286;51.570;7.090;2024-02-21T06:34:05;13.73;;;6.10;;
4547;SDS011;2286;51.570;7.090;2024-02-21T06:36:32;10.90;;;6.57;;
4547;SDS011;2286;51.570;7.090;2024-02-21T06:38:59;22.33;;;7.10;;
4547;SDS011;2286;51.570;7.090;2024-02-21T06:41:28;12.80;;;6.67;;
4547;SDS011;2286;51.570;7.090;2024-02-21T06:43:55;12.40;;;6.43;;
4547;SDS011;2286;51.570;7.090;2024-02-21T06:46:22;11.43;;;6.47;;
4547;SDS011;2286;51.570;7.090;2024-02-21T06:48:50;13.77;;;7.47;;
4547;SDS011;2286;51.570;7.090;2024-02-21T06:51:17;13.83;;;6.33;;
4547;SDS011;2286;51.570;7.090;2024-02-21T06:53:44;15.40;;;5.80;;
4547;SDS011;2286;51.570;7.090;2024-02-21T06:56:11;14.67;;;6.17;;
4547;SDS011;2286;51.570;7.090;2024-02-21T06:58:40;9.47;;;5.63;;
4547;SDS011;2286;51.570;7.090;2024-02-21T07:01:06;12.03;;;6.53;;
4547;SDS011;2286;51.570;7.090;2024-02-21T07:03:34;11.20;;;6.30;;
4547;SDS011;2286;51.570;7.090;2024-02-21T07:06:01;9.37;;;6.70;;
4547;SDS011;2286;51.570;7.090;2024-02-21T07:08:28;13.53;;;6.00;;
4547;SDS011;2286;51.570;7.090;2024-02-21T07:10:55;8.83;;;5.90;;
4547;SDS011;2286;51.570;7.090;2024-02-21T07:13:22;11.13;;;6.63;;
4547;SDS011;2286;51.570;7.090;2024-02-21T07:15:50;13.77;;;6.20;;
4547;SDS011;2286;51.570;7.090;2024-02-21T07:18:17;10.73;;;6.20;;
4547;SDS011;2286;51.570;7.090;2024-02-21T07:20:44;12.90;;;6.40;;
4547;SDS011;2286;51.570;7.090;2024-02-21T07:23:11;8.70;;;5.63;;
4547;SDS011;2286;51.570;7.090;2024-02-21T07:25:38;15.60;;;5.80;;
4547;SDS011;2286;51.570;7.090;2024-02-21T07:28:05;11.10;;;6.00;;
4547;SDS011;2286;51.570;7.090;2024-02-21T07:30:34;9.33;;;6.17;;
4547;SDS011;2286;51.570;7.090;2024-02-21T07:33:02;10.30;;;5.87;;
4547;SDS011;2286;51.570;7.090;2024-02-21T07:35:29;9.17;;;5.90;;
4547;SDS011;2286;51.570;7.090;2024-02-21T07:37:56;10.23;;;6.17;;
4547;SDS011;2286;51.570;7.090;2024-02-21T07:40:23;11.30;;;6.50;;
4547;SDS011;2286;51.570;7.090;2024-02-21T07:42:50;13.57;;;5.70;;
4547;SDS011;2286;51.570;7.090;2024-02-21T07:45:17;9.30;;;6.00;;
4547;SDS011;2286;51.570;7.090;2024-02-21T07:47:46;7.20;;;5.00;;
4547;SDS011;2286;51.570;7.090;2024-02-21T07:50:15;10.00;;;5.67;;
4547;SDS011;2286;51.570;7.090;2024-02-21T07:52:42;12.37;;;6.37;;
4547;SDS011;2286;51.570;7.090;2024-02-21T07:55:09;11.70;;;5.30;;
4547;SDS011;2286;51.570;7.090;2024-02-21T07:57:36;10.87;;;5.67;;
4547;SDS011;2286;51.570;7.090;2024-02-21T08:00:04;12.40;;;6.10;;
4547;SDS011;2286;51.570;7.090;2024-02-21T08:02:34;12.07;;;5.43;;
4547;SDS011;2286;51.570;7.090;2024-02-21T08:05:02;10.83;;;5.60;;
4547;SDS011;2286;51.570;7.090;2024-02-21T08:07:31;11.07;;;7.83;;
4547;SDS011;2286;51.570;7.090;2024-02-21T08:09:58;7.80;;;4.50;;
4547;SDS011;2286;51.570;7.090;2024-02-21T08:12:24;8.30;;;5.60;;
4547;SDS011;2286;51.570;7.090;2024-02-21T08:14:52;9.73;;;5.90;;
4547;SDS011;2286;51.570;7.090;2024-02-21T08:17:19;8.33;;;5.17;;
4547;SDS011;2286;51.570;7.090;2024-02-21T08:19:46;8.20;;;5.60;;
4547;SDS011;2286;51.570;7.090;2024-02-21T08:22:14;10.77;;;5.30;;
4547;SDS011;2286;51.570;7.090;2024-02-21T08:24:43;10.40;;;4.80;;
4547;SDS011;2286;51.570;7.090;2024-02-21T08:27:10;9.90;;;4.93;;
4547;SDS011;2286;51.570;7.090;2024-02-21T08:29:36;7.93;;;5.10;;
4547;SDS011;2286;51.570;7.090;2024-02-21T08:32:03;7.70;;;4.70;;
4547;SDS011;2286;51.570;7.090;2024-02-21T08:34:31;11.10;;;5.67;;
4547;SDS011;2286;51.570;7.090;2024-02-21T08:36:59;8.97;;;4.87;;
4547;SDS011;2286;51.570;7.090;2024-02-21T08:39:26;7.63;;;4.50;;
4547;SDS011;2286;51.570;7.090;2024-02-21T08:41:56;11.90;;;4.10;;
4547;SDS011;2286;51.570;7.090;2024-02-21T08:44:23;9.23;;;4.83;;
4547;SDS011;2286;51.570;7.090;2024-02-21T08:46:51;7.77;;;5.07;;
4547;SDS011;2286;51.570;7.090;2024-02-21T08:49:17;7.90;;;4.53;;
4547;SDS011;2286;51.570;7.090;2024-02-21T08:51:45;9.10;;;5.23;;
4547;SDS011;2286;51.570;7.090;2024-02-21T08:54:12;10.40;;;4.47;;
4547;SDS011;2286;51.570;7.090;2024-02-21T08:56:39;10.20;;;3.83;;
4547;SDS011;2286;51.570;7.090;2024-02-21T08:59:07;11.70;;;4.20;;
4547;SDS011;2286;51.570;7.090;2024-02-21T09:01:34;9.00;;;4.03;;
4547;SDS011;2286;51.570;7.090;2024-02-21T09:04:02;12.50;;;7.10;;
4547;SDS011;2286;51.570;7.090;2024-02-21T09:06:30;13.43;;;4.33;;
4547;SDS011;2286;51.570;7.090;2024-02-21T09:08:58;8.50;;;4.80;;
4547;SDS011;2286;51.570;7.090;2024-02-21T09:11:25;13.97;;;4.70;;
4547;SDS011;2286;51.570;7.090;2024-02-21T09:13:53;10.70;;;4.03;;
4547;SDS011;2286;51.570;7.090;2024-02-21T09:16:21;15.33;;;5.07;;
4547;SDS011;2286;51.570;7.090;2024-02-21T09:18:48;13.67;;;4.70;;
4547;SDS011;2286;51.570;7.090;2024-02-21T09:21:15;9.53;;;4.80;;
4547;SDS011;2286;51.570;7.090;2024-02-21T09:23:42;7.87;;;4.97;;
4547;SDS011;2286;51.570;7.090;2024-02-21T09:26:11;8.87;;;4.20;;
4547;SDS011;2286;51.570;7.090;2024-02-21T09:28:41;12.43;;;4.10;;
4547;SDS011;2286;51.570;7.090;2024-02-21T09:31:08;13.00;;;5.10;;
4547;SDS011;2286;51.570;7.090;2024-02-21T09:33:36;7.87;;;4.13;;
4547;SDS011;2286;51.570;7.090;2024-02-21T09:36:04;13.83;;;5.60;;
4547;SDS011;2286;51.570;7.090;2024-02-21T09:38:31;9.93;;;4.20;;
4547;SDS011;2286;51.570;7.090;2024-02-21T09:40:59;10.50;;;3.90;;
4547;SDS011;2286;51.570;7.090;2024-02-21T09:43:30;4.97;;;3.10;;
4547;SDS011;2286;51.570;7.090;2024-02-21T09:45:59;8.00;;;3.30;;
4547;SDS011;2286;51.570;7.090;2024-02-21T09:48:30;5.60;;;3.30;;
4547;SDS011;2286;51.570;7.090;2024-02-21T09:51:08;4.60;;;2.30;;
4547;SDS011;2286;51.570;7.090;2024-02-21T09:53:37;4.90;;;2.90;;
4547;SDS011;2286;51.570;7.090;2024-02-21T09:56:05;7.60;;;2.80;;
4547;SDS011;2286;51.570;7.090;2024-02-21T09:58:34;3.80;;;2.20;;
4547;SDS011;2286;51.570;7.090;2024-02-21T10:01:01;6.93;;;2.33;;
4547;SDS011;2286;51.570;7.090;2024-02-21T10:03:31;5.70;;;2.53;;
4547;SDS011;2286;51.570;7.090;2024-02-21T10:06:01;4.60;;;2.57;;
4547;SDS011;2286;51.570;7.090;2024-02-21T10:08:28;5.03;;;2.53;;
4547;SDS011;2286;51.570;7.090;2024-02-21T10:10:55;5.47;;;2.50;;
4547;SDS011;2286;51.570;7.090;2024-02-21T10:13:25;4.27;;;2.37;;
4547;SDS011;2286;51.570;7.090;2024-02-21T10:16:03;4.37;;;2.87;;
4547;SDS011;2286;51.570;7.090;2024-02-21T10:18:31;6.93;;;2.90;;
4547;SDS011;2286;51.570;7.090;2024-02-21T10:21:06;4.87;;;2.43;;
4547;SDS011;2286;51.570;7.090;2024-02-21T10:23:41;7.70;;;3.03;;
4547;SDS011;2286;51.570;7.090;2024-02-21T10:26:09;4.80;;;2.70;;
4547;SDS011;2286;51.570;7.090;2024-02-21T10:28:36;4.20;;;3.03;;
4547;SDS011;2286;51.570;7.090;2024-02-21T10:31:07;7.40;;;3.20;;
4547;SDS011;2286;51.570;7.090;2024-02-21T10:33:35;6.03;;;4.10;;
4547;SDS011;2286;51.570;7.090;2024-02-21T10:36:07;8.83;;;4.43;;
4547;SDS011;2286;51.570;7.090;2024-02-21T10:38:35;4.03;;;3.30;;
4547;SDS011;2286;51.570;7.090;2024-02-21T10:41:04;10.73;;;4.00;;
4547;SDS011;2286;51.570;7.090;2024-02-21T10:43:33;7.10;;;4.07;;
4547;SDS011;2286;51.570;7.090;2024-02-21T10:46:06;9.10;;;4.20;;
4547;SDS011;2286;51.570;7.090;2024-02-21T10:48:38;7.80;;;3.90;;
4547;SDS011;2286;51.570;7.090;2024-02-21T10:51:14;13.50;;;4.07;;
4547;SDS011;2286;51.570;7.090;2024-02-21T10:53:44;8.57;;;3.80;;
4547;SDS011;2286;51.570;7.090;2024-02-21T10:56:16;5.47;;;3.57;;
4547;SDS011;2286;51.570;7.090;2024-02-21T10:58:50;7.70;;;3.33;;
4547;SDS011;2286;51.570;7.090;2024-02-21T11:01:18;13.13;;;3.83;;
4547;SDS011;2286;51.570;7.090;2024-02-21T11:03:45;9.83;;;3.70;;
4547;SDS011;2286;51.570;7.090;2024-02-21T11:06:15;5.80;;;3.20;;
4547;SDS011;2286;51.570;7.090;2024-02-21T11:08:44;5.33;;;2.90;;
4547;SDS011;2286;51.570;7.090;2024-02-21T11:11:12;6.30;;;3.30;;
4547;SDS011;2286;51.570;7.090;2024-02-21T11:13:42;6.03;;;3.63;;
4547;SDS011;2286;51.570;7.090;2024-02-21T11:16:11;8.33;;;3.30;;
4547;SDS011;2286;51.570;7.090;2024-02-21T11:18:47;4.67;;;2.87;;
4547;SDS011;2286;51.570;7.090;2024-02-21T11:21:15;3.10;;;2.80;;
4547;SDS011;2286;51.570;7.090;2024-02-21T11:23:42;6.13;;;3.20;;
4547;SDS011;2286;51.570;7.090;2024-02-21T11:26:09;9.23;;;3.93;;
4547;SDS011;2286;51.570;7.090;2024-02-21T11:28:44;8.57;;;3.20;;
4547;SDS011;2286;51.570;7.090;2024-02-21T11:31:11;5.40;;;3.70;;
4547;SDS011;2286;51.570;7.090;2024-02-21T11:33:40;5.23;;;2.93;;
4547;SDS011;2286;51.570;7.090;2024-02-21T11:36:08;3.73;;;2.93;;
4547;SDS011;2286;51.570;7.090;2024-02-21T11:38:37;8.20;;;3.63;;
4547;SDS011;2286;51.570;7.090;2024-02-21T11:41:04;6.43;;;3.90;;
4547;SDS011;2286;51.570;7.090;2024-02-21T11:43:35;9.00;;;3.10;;
4547;SDS011;2286;51.570;7.090;2024-02-21T11:46:02;6.23;;;3.73;;
4547;SDS011;2286;51.570;7.090;2024-02-21T11:48:31;6.27;;;3.60;;
4547;SDS011;2286;51.570;7.090;2024-02-21T11:50:58;7.13;;;2.90;;
4547;SDS011;2286;51.570;7.090;2024-02-21T11:53:26;4.47;;;3.20;;
4547;SDS011;2286;51.570;7.090;2024-02-21T11:55:57;6.50;;;3.70;;
4547;SDS011;2286;51.570;7.090;2024-02-21T11:58:24;5.10;;;3.20;;
4547;SDS011;2286;51.570;7.090;2024-02-21T12:00:51;4.90;;;3.10;;
4547;SDS011;2286;51.570;7.090;2024-02-21T12:03:18;5.90;;;3.60;;
4547;SDS011;2286;51.570;7.090;2024-02-21T12:05:46;9.97;;;3.40;;
4547;SDS011;2286;51.570;7.090;2024-02-21T12:08:13;9.00;;;3.60;;
4547;SDS011;2286;51.570;7.090;2024-02-21T12:10:41;6.60;;;3.80;;
4547;SDS011;2286;51.570;7.090;2024-02-21T12:13:11;6.97;;;3.87;;
4547;SDS011;2286;51.570;7.090;2024-02-21T12:15:38;7.73;;;3.70;;
4547;SDS011;2286;51.570;7.090;2024-02-21T12:18:05;7.73;;;4.10;;
4547;SDS011;2286;51.570;7.090;2024-02-21T12:20:32;6.97;;;3.70;;
4547;SDS011;2286;51.570;7.090;2024-02-21T12:23:01;8.37;;;3.70;;
4547;SDS011;2286;51.570;7.090;2024-02-21T12:25:29;7.77;;;3.93;;
4547;SDS011;2286;51.570;7.090;2024-02-21T12:27:56;7.20;;;3.60;;
4547;SDS011;2286;51.570;7.090;2024-02-21T12:30:26;7.53;;;3.93;;
4547;SDS011;2286;51.570;7.090;2024-02-21T12:32:53;9.13;;;3.90;;
4547;SDS011;2286;51.570;7.090;2024-02-21T12:35:20;10.17;;;4.27;;
4547;SDS011;2286;51.570;7.090;2024-02-21T12:37:46;6.13;;;3.33;;
4547;SDS011;2286;51.570;7.090;2024-02-21T12:40:14;6.47;;;3.70;;
4547;SDS011;2286;51.570;7.090;2024-02-21T12:42:41;9.93;;;3.60;;
4547;SDS011;2286;51.570;7.090;2024-02-21T12:45:08;8.97;;;3.53;;
4547;SDS011;2286;51.570;7.090;2024-02-21T12:47:37;8.70;;;3.40;;
4547;SDS011;2286;51.570;7.090;2024-02-21T12:50:05;8.43;;;3.77;;
4547;SDS011;2286;51.570;7.090;2024-02-21T12:52:33;7.47;;;3.60;;
4547;SDS011;2286;51.570;7.090;2024-02-21T12:54:59;7.33;;;3.77;;
4547;SDS011;2286;51.570;7.090;2024-02-21T12:57:26;5.80;;;2.80;;
4547;SDS011;2286;51.570;7.090;2024-02-21T12:59:53;7.93;;;3.27;;
4547;SDS011;2286;51.570;7.090;2024-02-21T13:02:20;5.20;;;2.73;;
4547;SDS011;2286;51.570;7.090;2024-02-21T13:04:49;8.20;;;2.57;;
4547;SDS011;2286;51.570;7.090;2024-02-21T13:07:15;4.60;;;3.00;;
4547;SDS011;2286;51.570;7.090;2024-02-21T13:09:43;4.50;;;2.30;;
4547;SDS011;2286;51.570;7.090;2024-02-21T13:12:10;6.40;;;3.23;;
4547;SDS011;2286;51.570;7.090;2024-02-21T13:14:37;7.23;;;2.70;;
4547;SDS011;2286;51.570;7.090;2024-02-21T13:17:04;8.10;;;2.60;;
4547;SDS011;2286;51.570;7.090;2024-02-21T13:19:32;4.67;;;2.57;;
4547;SDS011;2286;51.570;7.090;2024-02-21T13:22:00;4.30;;;2.43;;
4547;SDS011;2286;51.570;7.090;2024-02-21T13:24:29;6.37;;;2.90;;
4547;SDS011;2286;51.570;7.090;2024-02-21T13:26:56;10.23;;;2.90;;
4547;SDS011;2286;51.570;7.090;2024-02-21T13:29:22;7.37;;;3.00;;
4547;SDS011;2286;51.570;7.090;2024-02-21T13:31:49;7.70;;;2.60;;
4547;SDS011;2286;51.570;7.090;2024-02-21T13:34:16;8.20;;;2.53;;
4547;SDS011;2286;51.570;7.090;2024-02-21T13:36:43;8.53;;;3.30;;
4547;SDS011;2286;51.570;7.090;2024-02-21T13:39:12;14.30;;;3.00;;
4547;SDS011;2286;51.570;7.090;2024-02-21T13:41:40;7.13;;;2.53;;
4547;SDS011;2286;51.570;7.090;2024-02-21T13:44:08;7.40;;;2.60;;
4547;SDS011;2286;51.570;7.090;2024-02-21T13:46:35;10.40;;;3.33;;
4547;SDS011;2286;51.570;7.090;2024-02-21T13:49:03;5.30;;;2.70;;
4547;SDS011;2286;51.570;7.090;2024-02-21T13:51:31;9.00;;;2.83;;
4547;SDS011;2286;51.570;7.090;2024-02-21T13:53:59;7.40;;;3.10;;
4547;SDS011;2286;51.570;7.090;2024-02-21T13:56:27;9.80;;;4.20;;
4547;SDS011;2286;51.570;7.090;2024-02-21T13:58:54;7.90;;;2.50;;
4547;SDS011;2286;51.570;7.090;2024-02-21T14:01:21;5.13;;;2.90;;
4547;SDS011;2286;51.570;7.090;2024-02-21T14:03:48;11.13;;;3.70;;
4547;SDS011;2286;51.570;7.090;2024-02-21T14:06:15;4.43;;;2.20;;
4547;SDS011;2286;51.570;7.090;2024-02-21T14:08:42;7.30;;;2.83;;
4547;SDS011;2286;51.570;7.090;2024-02-21T14:11:09;3.20;;;2.53;;
4547;SDS011;2286;51.570;7.090;2024-02-21T14:13:37;3.80;;;2.70;;
4547;SDS011;2286;51.570;7.090;2024-02-21T14:16:08;9.10;;;3.03;;
4547;SDS011;2286;51.570;7.090;2024-02-21T14:18:38;5.77;;;2.77;;
4547;SDS011;2286;51.570;7.090;2024-02-21T14:21:06;8.03;;;3.17;;
4547;SDS011;2286;51.570;7.090;2024-02-21T14:23:33;5.90;;;2.67;;
4547;SDS011;2286;51.570;7.090;2024-02-21T14:26:00;4.97;;;2.67;;
4547;SDS011;2286;51.570;7.090;2024-02-21T14:28:27;6.50;;;2.47;;
4547;SDS011;2286;51.570;7.090;2024-02-21T14:30:56;5.47;;;2.80;;
4547;SDS011;2286;51.570;7.090;2024-02-21T14:33:23;5.47;;;3.03;;
4547;SDS011;2286;51.570;7.090;2024-02-21T14:35:50;7.77;;;3.20;;
4547;SDS011;2286;51.570;7.090;2024-02-21T14:38:17;6.00;;;3.30;;
4547;SDS011;2286;51.570;7.090;2024-02-21T14:40:45;4.93;;;2.80;;
4547;SDS011;2286;51.570;7.090;2024-02-21T14:43:12;4.10;;;2.47;;
4547;SDS011;2286;51.570;7.090;2024-02-21T14:45:39;5.13;;;2.60;;
4547;SDS011;2286;51.570;7.090;2024-02-21T14:48:09;5.10;;;2.83;;
4547;SDS011;2286;51.570;7.090;2024-02-21T14:50:36;4.77;;;2.60;;
4547;SDS011;2286;51.570;7.090;2024-02-21T14:53:03;4.97;;;2.83;;
4547;SDS011;2286;51.570;7.090;2024-02-21T14:55:30;5.60;;;2.60;;
4547;SDS011;2286;51.570;7.090;2024-02-21T14:57:57;6.07;;;2.80;;
4547;SDS011;2286;51.570;7.090;2024-02-21T15:00:24;7.43;;;2.97;;
4547;SDS011;2286;51.570;7.090;2024-02-21T15:02:55;4.80;;;2.37;;
4547;SDS011;2286;51.570;7.090;2024-02-21T15:05:24;10.13;;;3.40;;